Pagrindinis puslapis
METAR-TAF:

METAR-TAF

Oro uostai :

Soldotna, Aliaska, Jungtinės Amerikos Valstijos

platuma: 60-29N, ilguma: 151-02W, Aukštis: 33 m

Dabartinis oras

Ataskaita buvo paskelbta 1 valandą ir 7 minutes, ne 05:56 UTC
Vėjas 4 kt iš Rytų
Temperatūra 7°C
Drėgmė 87%
Slėgis 1004 hPa
Matomumas: 16.1 km
Apsiniaukę ne aukštis 6000 ft

METAR: PASX 210556Z AUTO 10004KT 10SM OVC060 07/05 A2966 RMK AO2 SLP054 T00670050 10128 20067 57012

Laikas: 23:03 (07:03 UTC)


TAF: trūkstamas

Orai ataskaitas ir orų prognozės (METAR, TAF).

turimą stotys yra geltonos ir raudonos taškus žemėlapyje.

Perkelti pele per norėdami pamatyti stoties vardą.

Tada spustelėkite, norėdami matyti oro stebėjimo ir prognozės.

Norėdami pakeisti žemėlapį: spustelėkite ant žalios mygtukų su juodo kryžiaus žemyn,; žalią mygtuką su brūkšneliu, jei norite nutolinti; arba žalių rodyklių gretimoms žemėlapius.


METAR-TAF: